createdAt,value
2022-09-21T00:01:27.211Z,6.80
2022-09-21T00:04:01.315Z,6.60
2022-09-21T00:06:32.579Z,6.70
2022-09-21T00:08:59.362Z,6.70
2022-09-21T00:11:29.390Z,6.90
2022-09-21T00:14:00.510Z,6.80
2022-09-21T00:16:28.084Z,6.80
2022-09-21T00:18:54.707Z,6.70
2022-09-21T00:21:21.263Z,6.80
2022-09-21T00:23:48.383Z,6.80
2022-09-21T00:26:21.478Z,6.70
2022-09-21T00:28:53.809Z,6.70
2022-09-21T00:31:21.358Z,6.80
2022-09-21T00:33:48.176Z,6.90
2022-09-21T00:36:17.714Z,6.90
2022-09-21T00:38:50.040Z,6.80
2022-09-21T00:41:16.833Z,6.60
2022-09-21T00:45:20.683Z,6.50
2022-09-21T00:47:52.153Z,6.30
2022-09-21T00:50:24.679Z,6.30
2022-09-21T00:52:56.322Z,6.20
2022-09-21T00:55:32.014Z,6.30
2022-09-21T00:58:05.329Z,6.40
2022-09-21T01:00:31.800Z,6.50
2022-09-21T01:03:00.699Z,6.50
2022-09-21T01:05:28.462Z,6.50
2022-09-21T01:08:01.542Z,6.60
2022-09-21T01:10:41.376Z,6.60
2022-09-21T01:13:46.840Z,6.40
2022-09-21T01:16:36.167Z,6.30
2022-09-21T01:21:11.190Z,6.30
2022-09-21T01:27:52.564Z,6.40
2022-09-21T01:30:22.083Z,6.40
2022-09-21T01:33:09.020Z,6.00
2022-09-21T01:35:51.576Z,5.90
2022-09-21T01:38:26.211Z,5.70
2022-09-21T01:41:01.786Z,5.80
2022-09-21T01:43:38.991Z,5.80
2022-09-21T01:46:14.704Z,5.80
2022-09-21T01:48:49.509Z,5.80
2022-09-21T01:51:21.284Z,5.90
2022-09-21T01:53:55.588Z,5.80
2022-09-21T01:56:38.659Z,5.70
2022-09-21T01:59:34.314Z,5.70
2022-09-21T02:02:10.948Z,5.70
2022-09-21T02:04:38.202Z,5.70
2022-09-21T02:07:06.555Z,5.80
2022-09-21T02:09:35.849Z,5.70
2022-09-21T02:12:02.584Z,5.70
2022-09-21T02:14:32.739Z,5.80
2022-09-21T02:19:44.702Z,5.70
2022-09-21T02:22:44.503Z,5.60
2022-09-21T02:25:17.639Z,5.50
2022-09-21T02:28:26.081Z,5.50
2022-09-21T02:31:30.791Z,5.50
2022-09-21T02:37:10.263Z,5.80
2022-09-21T02:41:30.255Z,5.90
2022-09-21T02:44:31.805Z,5.70
2022-09-21T02:47:30.214Z,5.50
2022-09-21T02:50:05.912Z,5.70
2022-09-21T02:52:34.905Z,5.80
2022-09-21T02:55:04.302Z,5.90
2022-09-21T02:57:30.852Z,6.00
2022-09-21T02:59:57.379Z,5.90
2022-09-21T03:02:23.891Z,5.80
2022-09-21T03:04:50.456Z,5.70
2022-09-21T03:07:17.356Z,5.60
2022-09-21T03:09:44.143Z,5.40
2022-09-21T03:12:10.940Z,5.50
2022-09-21T03:14:37.387Z,5.70
2022-09-21T03:17:04.004Z,5.70
2022-09-21T03:19:30.500Z,5.80
2022-09-21T03:21:57.081Z,5.90
2022-09-21T03:24:41.880Z,6.00
2022-09-21T03:27:08.584Z,6.10
2022-09-21T03:29:35.174Z,6.00
2022-09-21T03:32:01.952Z,5.90
2022-09-21T03:34:28.466Z,5.70
2022-09-21T03:36:54.957Z,5.80
2022-09-21T03:39:21.420Z,5.70
2022-09-21T03:41:47.872Z,5.60
2022-09-21T03:44:16.957Z,5.60
2022-09-21T03:46:43.816Z,5.30
2022-09-21T03:49:10.296Z,5.50
2022-09-21T03:51:37.357Z,5.40
2022-09-21T03:54:03.974Z,5.40
2022-09-21T03:56:30.478Z,5.30
2022-09-21T03:58:57.059Z,5.20
2022-09-21T04:01:23.630Z,5.40
2022-09-21T04:03:50.115Z,5.40
2022-09-21T04:06:16.627Z,5.40
2022-09-21T04:08:43.858Z,5.50
2022-09-21T04:11:17.071Z,5.60
2022-09-21T04:13:44.600Z,5.50
2022-09-21T04:16:11.435Z,5.50
2022-09-21T04:18:38.105Z,5.30
2022-09-21T04:21:05.590Z,5.30
2022-09-21T04:23:32.462Z,5.20
2022-09-21T04:25:59.223Z,5.20
2022-09-21T04:28:25.717Z,5.20
2022-09-21T04:30:55.236Z,5.10
2022-09-21T04:33:23.146Z,5.00
2022-09-21T04:35:55.397Z,4.90
2022-09-21T04:38:21.870Z,4.90
2022-09-21T04:40:58.500Z,4.90
2022-09-21T04:43:25.632Z,4.90
2022-09-21T04:45:52.643Z,4.90
2022-09-21T04:48:19.151Z,4.80
2022-09-21T04:50:49.704Z,4.90
2022-09-21T04:53:16.705Z,5.00
2022-09-21T04:55:45.706Z,5.10
2022-09-21T04:58:12.192Z,5.10
2022-09-21T05:00:38.689Z,5.30
2022-09-21T05:03:05.181Z,5.40
2022-09-21T05:05:32.379Z,5.50
2022-09-21T05:07:58.839Z,5.40
2022-09-21T05:10:25.388Z,5.30
2022-09-21T05:12:51.996Z,5.20
2022-09-21T05:15:18.752Z,5.20
2022-09-21T05:17:45.958Z,5.20
2022-09-21T05:20:12.458Z,5.20
2022-09-21T05:22:38.946Z,5.30
2022-09-21T05:25:07.026Z,5.30
2022-09-21T05:27:33.480Z,5.30
2022-09-21T05:30:00.388Z,5.30
2022-09-21T05:32:53.991Z,5.40
2022-09-21T05:36:07.368Z,5.40
2022-09-21T05:38:34.318Z,5.50
2022-09-21T05:41:01.366Z,5.60
2022-09-21T05:43:28.312Z,5.80
2022-09-21T05:47:52.492Z,5.90
2022-09-21T05:51:26.469Z,6.10
2022-09-21T05:55:02.544Z,6.20
2022-09-21T05:57:52.939Z,6.20
2022-09-21T06:00:22.300Z,6.50
2022-09-21T06:03:50.033Z,6.70
2022-09-21T06:06:19.101Z,6.80
2022-09-21T06:08:45.630Z,7.00
2022-09-21T06:11:13.181Z,6.90
2022-09-21T06:13:40.740Z,7.00
2022-09-21T06:16:07.818Z,7.20
2022-09-21T06:18:39.542Z,7.50
2022-09-21T06:21:07.727Z,7.70
2022-09-21T06:23:35.202Z,7.90
2022-09-21T06:26:01.646Z,8.20
2022-09-21T06:28:29.060Z,8.40
2022-09-21T06:30:57.566Z,8.60
2022-09-21T06:33:24.655Z,8.90
2022-09-21T06:35:59.068Z,9.20
2022-09-21T06:38:27.450Z,9.40
2022-09-21T06:40:53.903Z,9.50
2022-09-21T06:43:21.309Z,9.80
2022-09-21T06:45:55.937Z,9.90
2022-09-21T06:48:23.091Z,10.10
2022-09-21T06:50:50.241Z,10.20
2022-09-21T06:53:17.524Z,10.50
2022-09-21T06:55:44.007Z,10.70
2022-09-21T06:58:13.402Z,10.80
2022-09-21T07:00:39.906Z,10.80
2022-09-21T07:03:09.351Z,11.00
2022-09-21T07:05:35.808Z,11.10
2022-09-21T07:08:02.463Z,11.20
2022-09-21T07:10:28.966Z,11.40
2022-09-21T07:12:55.644Z,11.50
2022-09-21T07:15:22.943Z,11.60
2022-09-21T07:17:52.284Z,11.60
2022-09-21T07:20:19.096Z,11.60
2022-09-21T07:22:45.562Z,11.80
2022-09-21T07:25:12.296Z,11.90
2022-09-21T07:27:39.469Z,12.10
2022-09-21T07:30:07.833Z,12.30
2022-09-21T07:32:35.775Z,12.60
2022-09-21T07:35:02.584Z,12.80
2022-09-21T07:37:31.445Z,13.10
2022-09-21T07:39:57.930Z,13.20
2022-09-21T07:42:25.678Z,13.20
2022-09-21T07:45:03.330Z,13.40
2022-09-21T07:47:30.640Z,13.60
2022-09-21T07:49:57.107Z,13.60
2022-09-21T07:52:23.593Z,13.80
2022-09-21T07:54:50.052Z,14.00
2022-09-21T07:57:34.695Z,14.30
2022-09-21T08:00:01.605Z,14.40
2022-09-21T08:02:28.103Z,14.40
2022-09-21T08:04:54.641Z,14.30
2022-09-21T08:07:21.137Z,14.50
2022-09-21T08:09:48.670Z,14.60
2022-09-21T08:12:17.866Z,14.80
2022-09-21T08:14:44.871Z,15.00
2022-09-21T08:17:11.338Z,15.00
2022-09-21T08:19:37.789Z,15.30
2022-09-21T08:22:04.499Z,15.30
2022-09-21T08:24:31.130Z,15.40
2022-09-21T08:26:57.623Z,15.50
2022-09-21T08:29:25.070Z,15.70
2022-09-21T08:31:52.793Z,16.00
2022-09-21T08:34:19.747Z,16.20
2022-09-21T08:36:46.433Z,16.10
2022-09-21T08:39:13.011Z,16.10
2022-09-21T08:42:18.790Z,16.20
2022-09-21T08:45:05.640Z,16.50
2022-09-21T08:47:56.413Z,16.90
2022-09-21T08:50:45.928Z,17.00
2022-09-21T08:54:01.574Z,17.00
2022-09-21T08:56:47.076Z,17.10
2022-09-21T08:59:20.085Z,17.00
2022-09-21T09:02:51.182Z,16.80
2022-09-21T09:11:17.970Z,16.80
2022-09-21T09:16:28.486Z,16.80
2022-09-21T09:19:06.766Z,16.30
2022-09-21T09:21:41.434Z,16.20
2022-09-21T09:24:38.984Z,16.60
2022-09-21T09:30:03.966Z,17.10
2022-09-21T09:33:35.092Z,17.00
2022-09-21T09:36:12.709Z,17.20
2022-09-21T09:38:57.933Z,17.60
2022-09-21T09:46:44.566Z,17.90
2022-09-21T09:51:14.553Z,17.70
2022-09-21T09:53:41.020Z,17.10
2022-09-21T09:56:11.294Z,17.10
2022-09-21T09:58:55.721Z,16.90
2022-09-21T10:01:57.351Z,16.90
2022-09-21T10:04:23.879Z,17.00
2022-09-21T10:06:50.358Z,17.10
2022-09-21T10:09:34.863Z,17.00
2022-09-21T10:12:18.055Z,16.80
2022-09-21T10:14:51.755Z,16.80
2022-09-21T10:17:19.606Z,16.70
2022-09-21T10:19:46.442Z,16.90
2022-09-21T10:22:19.307Z,17.00
2022-09-21T10:24:58.302Z,16.90
2022-09-21T10:27:33.711Z,16.80
2022-09-21T10:30:00.791Z,16.70
2022-09-21T10:32:30.275Z,16.80
2022-09-21T10:35:29.739Z,17.30
2022-09-21T10:38:19.837Z,18.00
2022-09-21T10:40:49.743Z,18.30
2022-09-21T10:43:43.670Z,18.20
2022-09-21T10:46:11.466Z,18.20
2022-09-21T10:48:38.149Z,17.80
2022-09-21T10:51:04.875Z,17.60
2022-09-21T10:53:36.368Z,17.40
2022-09-21T10:56:19.906Z,17.40
2022-09-21T10:59:23.002Z,17.40
2022-09-21T11:01:54.134Z,17.10
2022-09-21T11:04:47.819Z,17.00
2022-09-21T11:07:24.523Z,17.00
2022-09-21T11:10:34.812Z,17.20
2022-09-21T11:13:37.291Z,17.50
2022-09-21T11:16:54.964Z,17.90
2022-09-21T11:19:40.788Z,18.20
2022-09-21T11:24:54.208Z,18.50
2022-09-21T11:27:37.186Z,18.10
2022-09-21T11:30:13.831Z,17.70
2022-09-21T11:33:17.744Z,17.50
2022-09-21T11:39:05.725Z,17.60
2022-09-21T11:43:31.130Z,17.50
2022-09-21T11:46:21.674Z,17.20
2022-09-21T11:52:32.228Z,17.10
2022-09-21T11:58:27.892Z,17.00
2022-09-21T12:01:30.610Z,17.00
2022-09-21T12:06:24.331Z,17.30
2022-09-21T12:11:04.760Z,17.40
2022-09-21T12:20:08.932Z,17.00
2022-09-21T12:22:42.526Z,17.10
2022-09-21T12:25:48.324Z,17.30
2022-09-21T12:28:28.073Z,17.60
2022-09-21T12:31:17.566Z,17.90
2022-09-21T12:33:56.136Z,18.10
2022-09-21T12:36:42.216Z,18.20
2022-09-21T12:42:24.724Z,17.90
2022-09-21T12:45:57.786Z,17.40
2022-09-21T12:48:34.553Z,17.10
2022-09-21T12:51:28.622Z,17.10
2022-09-21T12:54:01.349Z,17.10
2022-09-21T12:58:16.718Z,16.90
2022-09-21T13:01:25.883Z,16.60
2022-09-21T13:07:07.308Z,16.40
2022-09-21T13:09:38.986Z,16.40
2022-09-21T13:12:16.199Z,16.50
2022-09-21T13:14:51.754Z,16.50
2022-09-21T13:17:30.556Z,16.40
2022-09-21T13:20:20.234Z,16.50
2022-09-21T13:22:48.460Z,16.50
2022-09-21T13:25:37.051Z,16.60
2022-09-21T13:29:42.386Z,16.70
2022-09-21T13:32:50.640Z,16.90
2022-09-21T13:36:03.627Z,17.00
2022-09-21T13:38:57.661Z,17.30
2022-09-21T13:41:51.664Z,17.40
2022-09-21T13:44:45.436Z,17.40
2022-09-21T13:47:13.483Z,17.30
2022-09-21T13:49:55.926Z,17.20
2022-09-21T13:52:44.764Z,17.20
2022-09-21T13:55:41.437Z,17.40
2022-09-21T13:58:34.217Z,17.10
2022-09-21T14:01:35.393Z,16.90
2022-09-21T14:04:36.374Z,17.00
2022-09-21T14:07:07.102Z,17.30
2022-09-21T14:09:43.025Z,17.60
2022-09-21T14:12:20.590Z,17.80
2022-09-21T14:15:43.942Z,17.80
2022-09-21T14:18:36.636Z,18.00
2022-09-21T14:21:17.041Z,18.10
2022-09-21T14:24:20.222Z,18.20
2022-09-21T14:27:26.516Z,18.40
2022-09-21T14:30:25.718Z,18.20
2022-09-21T14:33:59.289Z,18.00
2022-09-21T14:36:45.013Z,18.00
2022-09-21T14:39:25.588Z,18.00
2022-09-21T14:41:56.209Z,18.10
2022-09-21T14:44:29.422Z,18.00
2022-09-21T14:50:17.719Z,17.90
2022-09-21T14:55:46.137Z,17.80
2022-09-21T14:58:48.200Z,17.70
2022-09-21T15:02:02.737Z,17.50
2022-09-21T15:05:29.267Z,17.20
2022-09-21T15:10:43.476Z,17.20
2022-09-21T15:13:41.875Z,16.70
2022-09-21T15:16:42.089Z,16.50
2022-09-21T15:19:36.770Z,16.30
2022-09-21T15:22:21.547Z,16.20
2022-09-21T15:24:57.340Z,16.10
2022-09-21T15:27:32.409Z,16.10
2022-09-21T15:30:03.853Z,16.10
2022-09-21T15:32:47.215Z,15.90
2022-09-21T15:35:29.968Z,15.80
2022-09-21T15:38:01.154Z,15.80
2022-09-21T15:40:35.986Z,15.70
2022-09-21T15:43:20.050Z,15.60
2022-09-21T15:46:11.367Z,15.50
2022-09-21T15:48:41.749Z,15.50
2022-09-21T15:51:35.002Z,15.50
2022-09-21T15:54:29.800Z,15.60
2022-09-21T15:56:56.320Z,15.40
2022-09-21T15:59:22.910Z,15.30
2022-09-21T16:01:54.926Z,15.40
2022-09-21T16:04:24.746Z,15.40
2022-09-21T16:07:07.481Z,15.50
2022-09-21T16:09:45.745Z,15.60
2022-09-21T16:14:35.496Z,15.60
2022-09-21T16:18:55.962Z,15.70
2022-09-21T16:22:03.540Z,15.50
2022-09-21T16:24:30.703Z,15.40
2022-09-21T16:27:02.167Z,15.30
2022-09-21T16:29:44.797Z,15.20
2022-09-21T16:33:43.244Z,15.20
2022-09-21T16:38:01.507Z,15.00
2022-09-21T16:40:28.783Z,14.80
2022-09-21T16:42:56.076Z,14.70
2022-09-21T16:45:30.865Z,14.60
2022-09-21T16:47:58.880Z,14.50
2022-09-21T16:50:26.085Z,14.30
2022-09-21T16:52:52.566Z,14.20
2022-09-21T16:55:20.062Z,13.90
2022-09-21T16:57:47.480Z,13.80
2022-09-21T17:00:19.902Z,13.60
2022-09-21T17:02:47.836Z,13.40
2022-09-21T17:05:17.292Z,13.20
2022-09-21T17:07:58.521Z,12.80
2022-09-21T17:10:32.459Z,12.40
2022-09-21T17:12:59.158Z,12.10
2022-09-21T17:15:29.883Z,11.80
2022-09-21T17:17:58.216Z,11.60
2022-09-21T17:20:40.976Z,11.50
2022-09-21T17:23:07.935Z,11.40
2022-09-21T17:25:36.106Z,11.30
2022-09-21T17:28:24.952Z,11.50
2022-09-21T17:30:52.920Z,11.70
2022-09-21T17:33:20.686Z,11.70
2022-09-21T17:35:50.268Z,11.90
2022-09-21T17:38:17.425Z,11.70
2022-09-21T17:40:44.337Z,11.30
2022-09-21T17:43:47.060Z,10.70
2022-09-21T17:47:22.865Z,10.20
2022-09-21T17:49:49.585Z,10.00
2022-09-21T17:52:40.583Z,9.90
2022-09-21T17:55:12.739Z,9.80
2022-09-21T18:01:19.952Z,9.60
2022-09-21T18:03:47.820Z,9.70
2022-09-21T18:06:15.298Z,9.60
2022-09-21T18:08:42.207Z,9.50
2022-09-21T18:15:27.240Z,9.40
2022-09-21T18:18:36.036Z,9.40
2022-09-21T18:21:12.612Z,9.50
2022-09-21T18:24:31.080Z,9.50
2022-09-21T18:26:59.490Z,9.50
2022-09-21T18:29:41.351Z,9.40
2022-09-21T18:34:12.196Z,9.40
2022-09-21T18:41:35.513Z,9.20
2022-09-21T18:46:38.458Z,8.50
2022-09-21T18:49:42.445Z,8.60
2022-09-21T18:53:55.628Z,8.90
2022-09-21T18:56:37.099Z,9.00
2022-09-21T18:59:06.380Z,8.90
2022-09-21T19:01:33.460Z,8.80
2022-09-21T19:04:01.094Z,8.80
2022-09-21T19:09:37.368Z,8.80
2022-09-21T19:16:00.305Z,8.70
2022-09-21T19:23:16.130Z,8.60
2022-09-21T19:25:49.738Z,8.10
2022-09-21T19:31:40.597Z,8.10
2022-09-21T19:34:17.580Z,8.30
2022-09-21T19:36:46.590Z,7.80
2022-09-21T19:39:14.140Z,7.60
2022-09-21T19:42:30.170Z,7.60
2022-09-21T19:47:34.591Z,7.80
2022-09-21T19:50:53.794Z,7.90
2022-09-21T19:53:40.585Z,7.80
2022-09-21T19:56:34.151Z,7.50
2022-09-21T19:59:20.063Z,7.30
2022-09-21T20:02:02.286Z,7.40
2022-09-21T20:04:39.910Z,7.50
2022-09-21T20:07:18.536Z,7.40
2022-09-21T20:10:07.334Z,7.20
2022-09-21T20:13:05.905Z,6.90
2022-09-21T20:15:47.503Z,6.90
2022-09-21T20:18:29.755Z,6.70
2022-09-21T20:20:56.726Z,6.60
2022-09-21T20:23:23.755Z,6.60
2022-09-21T20:26:06.547Z,6.50
2022-09-21T20:28:33.989Z,6.50
2022-09-21T20:31:00.597Z,6.40
2022-09-21T20:33:31.193Z,6.50
2022-09-21T20:35:57.664Z,6.40
2022-09-21T20:38:24.147Z,6.60
2022-09-21T20:40:51.044Z,6.80
2022-09-21T20:43:19.085Z,7.00
2022-09-21T20:45:48.522Z,7.20
2022-09-21T20:48:15.020Z,7.10
2022-09-21T20:50:48.165Z,7.20
2022-09-21T20:53:15.862Z,7.40
2022-09-21T20:55:51.593Z,7.40
2022-09-21T20:58:18.083Z,7.30
2022-09-21T21:00:45.080Z,7.30
2022-09-21T21:03:11.898Z,7.30
2022-09-21T21:05:39.113Z,7.10
2022-09-21T21:08:08.318Z,7.00
2022-09-21T21:10:34.983Z,7.10
2022-09-21T21:13:01.824Z,7.00
2022-09-21T21:15:31.330Z,6.90
2022-09-21T21:17:57.849Z,6.60
2022-09-21T21:20:24.950Z,6.50
2022-09-21T21:22:52.958Z,6.50
2022-09-21T21:25:19.790Z,6.60
2022-09-21T21:27:46.276Z,6.70
2022-09-21T21:30:13.163Z,6.90
2022-09-21T21:32:39.634Z,6.90
2022-09-21T21:35:07.241Z,6.90
2022-09-21T21:37:33.739Z,7.00
2022-09-21T21:40:00.726Z,7.00
2022-09-21T21:42:29.382Z,7.00
2022-09-21T21:44:56.245Z,6.90
2022-09-21T21:47:40.154Z,6.90
2022-09-21T21:50:08.513Z,6.80
2022-09-21T21:52:35.008Z,6.80
2022-09-21T21:55:01.661Z,6.90
2022-09-21T21:57:28.295Z,6.80
2022-09-21T21:59:54.762Z,6.70
2022-09-21T22:02:21.349Z,6.80
2022-09-21T22:04:47.858Z,6.80
2022-09-21T22:07:14.354Z,6.70
2022-09-21T22:09:40.863Z,6.70
2022-09-21T22:12:08.184Z,6.30
2022-09-21T22:14:34.646Z,5.90
2022-09-21T22:17:01.149Z,5.80
2022-09-21T22:19:27.660Z,5.80
2022-09-21T22:21:54.713Z,5.60
2022-09-21T22:24:21.677Z,5.30
2022-09-21T22:26:48.788Z,5.40
2022-09-21T22:29:16.763Z,5.50
2022-09-21T22:31:47.500Z,5.50
2022-09-21T22:34:15.311Z,5.50
2022-09-21T22:36:45.203Z,5.50
2022-09-21T22:39:12.361Z,5.50
2022-09-21T22:41:41.347Z,5.70
2022-09-21T22:44:09.429Z,5.70
2022-09-21T22:46:36.841Z,5.70
2022-09-21T22:49:04.002Z,5.80
2022-09-21T22:51:30.818Z,5.80
2022-09-21T22:53:57.707Z,5.80
2022-09-21T22:56:30.646Z,6.10
2022-09-21T22:59:00.240Z,6.10
2022-09-21T23:01:33.839Z,6.10
2022-09-21T23:04:12.036Z,6.10
2022-09-21T23:06:42.539Z,6.00
2022-09-21T23:09:15.561Z,5.70
2022-09-21T23:11:46.737Z,5.50
2022-09-21T23:14:15.259Z,5.40
2022-09-21T23:16:42.478Z,5.20
2022-09-21T23:19:15.239Z,5.20
2022-09-21T23:21:50.762Z,5.20
2022-09-21T23:24:18.742Z,5.40
2022-09-21T23:26:46.131Z,5.60
2022-09-21T23:29:14.896Z,5.70
2022-09-21T23:31:45.098Z,5.70
2022-09-21T23:34:13.165Z,5.80
2022-09-21T23:36:41.113Z,5.90
2022-09-21T23:39:11.234Z,5.70
2022-09-21T23:41:37.735Z,5.80
2022-09-21T23:44:05.149Z,5.70
2022-09-21T23:46:35.156Z,5.90
2022-09-21T23:49:02.416Z,5.90
2022-09-21T23:51:29.335Z,5.90
2022-09-21T23:53:56.841Z,5.80
2022-09-21T23:56:24.069Z,5.80
2022-09-21T23:58:51.337Z,5.80
